sensor_id;sensor_type;location;lat;lon;timestamp;temperature;humidity
48007;DHT22;33771;48.180;11.400;2023-04-15T00:00:09;5.40;99.90
48007;DHT22;33771;48.180;11.400;2023-04-15T00:02:35;5.40;99.90
48007;DHT22;33771;48.180;11.400;2023-04-15T00:05:02;5.40;99.90
48007;DHT22;33771;48.180;11.400;2023-04-15T00:07:27;5.40;99.90
48007;DHT22;33771;48.180;11.400;2023-04-15T00:09:54;5.40;99.90
48007;DHT22;33771;48.180;11.400;2023-04-15T00:12:22;5.40;99.90
48007;DHT22;33771;48.180;11.400;2023-04-15T00:14:48;5.40;99.90
48007;DHT22;33771;48.180;11.400;2023-04-15T00:17:14;5.40;99.90
48007;DHT22;33771;48.180;11.400;2023-04-15T00:19:40;5.30;99.90
48007;DHT22;33771;48.180;11.400;2023-04-15T00:22:06;5.40;99.90
48007;DHT22;33771;48.180;11.400;2023-04-15T00:24:32;5.30;99.90
48007;DHT22;33771;48.180;11.400;2023-04-15T00:26:58;5.30;99.90
48007;DHT22;33771;48.180;11.400;2023-04-15T00:29:24;5.30;99.90
48007;DHT22;33771;48.180;11.400;2023-04-15T00:31:50;5.30;99.90
48007;DHT22;33771;48.180;11.400;2023-04-15T00:34:15;5.30;99.90
48007;DHT22;33771;48.180;11.400;2023-04-15T00:36:41;5.30;99.90
48007;DHT22;33771;48.180;11.400;2023-04-15T00:39:07;5.30;99.90
48007;DHT22;33771;48.180;11.400;2023-04-15T00:41:33;5.30;99.90
48007;DHT22;33771;48.180;11.400;2023-04-15T00:44:00;5.30;99.90
48007;DHT22;33771;48.180;11.400;2023-04-15T00:46:28;5.30;99.90
48007;DHT22;33771;48.180;11.400;2023-04-15T00:48:55;5.30;99.90
48007;DHT22;33771;48.180;11.400;2023-04-15T00:51:20;5.30;99.90
48007;DHT22;33771;48.180;11.400;2023-04-15T00:53:46;5.30;99.90
48007;DHT22;33771;48.180;11.400;2023-04-15T00:56:12;5.30;99.90
48007;DHT22;33771;48.180;11.400;2023-04-15T00:58:38;5.30;99.90
48007;DHT22;33771;48.180;11.400;2023-04-15T01:01:04;5.30;99.90
48007;DHT22;33771;48.180;11.400;2023-04-15T01:03:30;5.30;99.90
48007;DHT22;33771;48.180;11.400;2023-04-15T01:05:55;5.30;99.90
48007;DHT22;33771;48.180;11.400;2023-04-15T01:08:30;5.20;99.90
48007;DHT22;33771;48.180;11.400;2023-04-15T01:10:56;5.30;99.90
48007;DHT22;33771;48.180;11.400;2023-04-15T01:13:23;5.30;99.90
48007;DHT22;33771;48.180;11.400;2023-04-15T01:15:50;5.30;99.90
48007;DHT22;33771;48.180;11.400;2023-04-15T01:18:16;5.20;99.90
48007;DHT22;33771;48.180;11.400;2023-04-15T01:20:43;5.20;99.90
48007;DHT22;33771;48.180;11.400;2023-04-15T01:23:09;5.20;99.90
48007;DHT22;33771;48.180;11.400;2023-04-15T01:25:34;5.20;99.90
48007;DHT22;33771;48.180;11.400;2023-04-15T01:28:00;5.20;99.90
48007;DHT22;33771;48.180;11.400;2023-04-15T01:30:26;5.20;99.90
48007;DHT22;33771;48.180;11.400;2023-04-15T01:32:52;5.20;99.90
48007;DHT22;33771;48.180;11.400;2023-04-15T01:35:18;5.20;99.90
48007;DHT22;33771;48.180;11.400;2023-04-15T01:37:44;5.10;99.90
48007;DHT22;33771;48.180;11.400;2023-04-15T01:40:10;5.10;99.90
48007;DHT22;33771;48.180;11.400;2023-04-15T01:42:36;5.20;99.90
48007;DHT22;33771;48.180;11.400;2023-04-15T01:45:03;5.10;99.90
48007;DHT22;33771;48.180;11.400;2023-04-15T01:47:28;5.10;99.90
48007;DHT22;33771;48.180;11.400;2023-04-15T01:49:54;5.10;99.90
48007;DHT22;33771;48.180;11.400;2023-04-15T01:52:20;5.10;99.90
48007;DHT22;33771;48.180;11.400;2023-04-15T01:54:46;5.10;99.90
48007;DHT22;33771;48.180;11.400;2023-04-15T01:57:11;5.10;99.90
48007;DHT22;33771;48.180;11.400;2023-04-15T01:59:37;5.10;99.90
48007;DHT22;33771;48.180;11.400;2023-04-15T02:02:03;5.10;99.90
48007;DHT22;33771;48.180;11.400;2023-04-15T02:04:29;5.10;99.90
48007;DHT22;33771;48.180;11.400;2023-04-15T02:06:55;5.10;99.90
48007;DHT22;33771;48.180;11.400;2023-04-15T02:09:21;5.10;99.90
48007;DHT22;33771;48.180;11.400;2023-04-15T02:11:47;5.10;99.90
48007;DHT22;33771;48.180;11.400;2023-04-15T02:14:12;5.10;99.90
48007;DHT22;33771;48.180;11.400;2023-04-15T02:16:38;5.10;99.90
48007;DHT22;33771;48.180;11.400;2023-04-15T02:19:04;5.10;99.90
48007;DHT22;33771;48.180;11.400;2023-04-15T02:21:29;5.10;99.90
48007;DHT22;33771;48.180;11.400;2023-04-15T02:23:55;5.10;99.90
48007;DHT22;33771;48.180;11.400;2023-04-15T02:26:21;5.10;99.90
48007;DHT22;33771;48.180;11.400;2023-04-15T02:28:47;5.10;99.90
48007;DHT22;33771;48.180;11.400;2023-04-15T02:31:13;5.10;99.90
48007;DHT22;33771;48.180;11.400;2023-04-15T02:33:39;5.10;99.90
48007;DHT22;33771;48.180;11.400;2023-04-15T02:36:05;5.10;99.90
48007;DHT22;33771;48.180;11.400;2023-04-15T02:38:32;5.10;99.90
48007;DHT22;33771;48.180;11.400;2023-04-15T02:40:57;5.10;99.90
48007;DHT22;33771;48.180;11.400;2023-04-15T02:43:23;5.10;99.90
48007;DHT22;33771;48.180;11.400;2023-04-15T02:45:49;5.10;99.90
48007;DHT22;33771;48.180;11.400;2023-04-15T02:48:15;5.00;99.90
48007;DHT22;33771;48.180;11.400;2023-04-15T02:50:43;5.00;99.90
48007;DHT22;33771;48.180;11.400;2023-04-15T02:53:08;5.10;99.90
48007;DHT22;33771;48.180;11.400;2023-04-15T02:55:34;5.00;99.90
48007;DHT22;33771;48.180;11.400;2023-04-15T02:57:59;5.00;99.90
48007;DHT22;33771;48.180;11.400;2023-04-15T03:00:25;5.00;99.90
48007;DHT22;33771;48.180;11.400;2023-04-15T03:02:57;5.00;99.90
48007;DHT22;33771;48.180;11.400;2023-04-15T03:05:23;5.10;99.90
48007;DHT22;33771;48.180;11.400;2023-04-15T03:07:50;5.00;99.90
48007;DHT22;33771;48.180;11.400;2023-04-15T03:10:16;5.00;99.90
48007;DHT22;33771;48.180;11.400;2023-04-15T03:12:41;5.00;99.90
48007;DHT22;33771;48.180;11.400;2023-04-15T03:15:07;5.00;99.90
48007;DHT22;33771;48.180;11.400;2023-04-15T03:17:33;5.10;99.90
48007;DHT22;33771;48.180;11.400;2023-04-15T03:20:04;5.00;99.90
48007;DHT22;33771;48.180;11.400;2023-04-15T03:22:33;5.00;99.90
48007;DHT22;33771;48.180;11.400;2023-04-15T03:24:58;5.00;99.90
48007;DHT22;33771;48.180;11.400;2023-04-15T03:27:24;5.00;99.90
48007;DHT22;33771;48.180;11.400;2023-04-15T03:29:50;5.00;99.90
48007;DHT22;33771;48.180;11.400;2023-04-15T03:32:16;5.00;99.90
48007;DHT22;33771;48.180;11.400;2023-04-15T03:34:42;5.00;99.90
48007;DHT22;33771;48.180;11.400;2023-04-15T03:37:08;5.00;99.90
48007;DHT22;33771;48.180;11.400;2023-04-15T03:39:34;4.90;99.90
48007;DHT22;33771;48.180;11.400;2023-04-15T03:42:00;4.90;99.90
48007;DHT22;33771;48.180;11.400;2023-04-15T03:44:26;4.90;99.90
48007;DHT22;33771;48.180;11.400;2023-04-15T03:46:52;4.90;99.90
48007;DHT22;33771;48.180;11.400;2023-04-15T03:49:18;5.00;99.90
48007;DHT22;33771;48.180;11.400;2023-04-15T03:51:44;4.90;99.90
48007;DHT22;33771;48.180;11.400;2023-04-15T03:54:09;5.00;99.90
48007;DHT22;33771;48.180;11.400;2023-04-15T03:56:36;4.90;99.90
48007;DHT22;33771;48.180;11.400;2023-04-15T03:59:01;4.90;99.90
48007;DHT22;33771;48.180;11.400;2023-04-15T04:01:27;4.90;99.90
48007;DHT22;33771;48.180;11.400;2023-04-15T04:03:52;4.90;99.90
48007;DHT22;33771;48.180;11.400;2023-04-15T04:06:18;4.90;99.90
48007;DHT22;33771;48.180;11.400;2023-04-15T04:08:44;4.90;99.90
48007;DHT22;33771;48.180;11.400;2023-04-15T04:11:10;4.90;99.90
48007;DHT22;33771;48.180;11.400;2023-04-15T04:13:35;4.90;99.90
48007;DHT22;33771;48.180;11.400;2023-04-15T04:16:01;4.90;99.90
48007;DHT22;33771;48.180;11.400;2023-04-15T04:18:29;4.90;99.90
48007;DHT22;33771;48.180;11.400;2023-04-15T04:20:55;4.90;99.90
48007;DHT22;33771;48.180;11.400;2023-04-15T04:23:21;4.90;99.90
48007;DHT22;33771;48.180;11.400;2023-04-15T04:25:46;4.90;99.90
48007;DHT22;33771;48.180;11.400;2023-04-15T04:28:12;4.90;99.90
48007;DHT22;33771;48.180;11.400;2023-04-15T04:30:38;4.90;99.90
48007;DHT22;33771;48.180;11.400;2023-04-15T04:33:04;4.90;99.90
48007;DHT22;33771;48.180;11.400;2023-04-15T04:35:29;4.80;99.90
48007;DHT22;33771;48.180;11.400;2023-04-15T04:37:55;4.90;99.90
48007;DHT22;33771;48.180;11.400;2023-04-15T04:40:20;4.90;99.90
48007;DHT22;33771;48.180;11.400;2023-04-15T04:42:46;4.90;99.90
48007;DHT22;33771;48.180;11.400;2023-04-15T04:45:12;4.90;99.90
48007;DHT22;33771;48.180;11.400;2023-04-15T04:47:37;4.80;99.90
48007;DHT22;33771;48.180;11.400;2023-04-15T04:50:03;4.80;99.90
48007;DHT22;33771;48.180;11.400;2023-04-15T04:52:29;4.90;99.90
48007;DHT22;33771;48.180;11.400;2023-04-15T04:54:54;4.90;99.90
48007;DHT22;33771;48.180;11.400;2023-04-15T04:57:20;4.90;99.90
48007;DHT22;33771;48.180;11.400;2023-04-15T04:59:46;4.90;99.90
48007;DHT22;33771;48.180;11.400;2023-04-15T05:02:11;4.80;99.90
48007;DHT22;33771;48.180;11.400;2023-04-15T05:04:37;4.90;99.90
48007;DHT22;33771;48.180;11.400;2023-04-15T05:07:02;4.90;99.90
48007;DHT22;33771;48.180;11.400;2023-04-15T05:09:28;4.90;99.90
48007;DHT22;33771;48.180;11.400;2023-04-15T05:11:56;4.90;99.90
48007;DHT22;33771;48.180;11.400;2023-04-15T05:14:22;4.90;99.90
48007;DHT22;33771;48.180;11.400;2023-04-15T05:16:47;5.00;99.90
48007;DHT22;33771;48.180;11.400;2023-04-15T05:19:13;5.00;99.90
48007;DHT22;33771;48.180;11.400;2023-04-15T05:21:38;5.00;99.90
48007;DHT22;33771;48.180;11.400;2023-04-15T05:24:04;5.00;99.90
48007;DHT22;33771;48.180;11.400;2023-04-15T05:26:30;5.10;99.90
48007;DHT22;33771;48.180;11.400;2023-04-15T05:28:55;5.10;99.90
48007;DHT22;33771;48.180;11.400;2023-04-15T05:31:21;5.10;99.90
48007;DHT22;33771;48.180;11.400;2023-04-15T05:33:47;5.20;99.90
48007;DHT22;33771;48.180;11.400;2023-04-15T05:36:12;5.20;99.90
48007;DHT22;33771;48.180;11.400;2023-04-15T05:38:38;5.30;99.90
48007;DHT22;33771;48.180;11.400;2023-04-15T05:41:03;5.30;99.90
48007;DHT22;33771;48.180;11.400;2023-04-15T05:43:29;5.40;99.90
48007;DHT22;33771;48.180;11.400;2023-04-15T05:45:55;5.40;99.90
48007;DHT22;33771;48.180;11.400;2023-04-15T05:48:20;5.40;99.90
48007;DHT22;33771;48.180;11.400;2023-04-15T05:50:46;5.50;99.90
48007;DHT22;33771;48.180;11.400;2023-04-15T05:53:12;5.50;99.90
48007;DHT22;33771;48.180;11.400;2023-04-15T05:55:37;5.50;99.90
48007;DHT22;33771;48.180;11.400;2023-04-15T05:58:03;5.60;99.90
48007;DHT22;33771;48.180;11.400;2023-04-15T06:00:28;5.70;99.90
48007;DHT22;33771;48.180;11.400;2023-04-15T06:02:55;5.70;99.90
48007;DHT22;33771;48.180;11.400;2023-04-15T06:05:21;5.70;99.90
48007;DHT22;33771;48.180;11.400;2023-04-15T06:07:46;5.70;99.90
48007;DHT22;33771;48.180;11.400;2023-04-15T06:10:12;5.70;99.90
48007;DHT22;33771;48.180;11.400;2023-04-15T06:12:38;5.80;99.90
48007;DHT22;33771;48.180;11.400;2023-04-15T06:15:04;5.80;99.90
48007;DHT22;33771;48.180;11.400;2023-04-15T06:17:30;5.90;99.90
48007;DHT22;33771;48.180;11.400;2023-04-15T06:19:56;5.90;99.90
48007;DHT22;33771;48.180;11.400;2023-04-15T06:22:22;5.90;99.90
48007;DHT22;33771;48.180;11.400;2023-04-15T06:24:48;6.00;99.90
48007;DHT22;33771;48.180;11.400;2023-04-15T06:27:17;6.00;99.90
48007;DHT22;33771;48.180;11.400;2023-04-15T06:29:43;6.00;99.90
48007;DHT22;33771;48.180;11.400;2023-04-15T06:32:09;6.10;99.90
48007;DHT22;33771;48.180;11.400;2023-04-15T06:34:35;6.20;99.90
48007;DHT22;33771;48.180;11.400;2023-04-15T06:37:00;6.20;99.90
48007;DHT22;33771;48.180;11.400;2023-04-15T06:39:26;6.30;99.90
48007;DHT22;33771;48.180;11.400;2023-04-15T06:41:52;6.30;99.90
48007;DHT22;33771;48.180;11.400;2023-04-15T06:44:18;6.30;99.90
48007;DHT22;33771;48.180;11.400;2023-04-15T06:46:43;6.30;99.90
48007;DHT22;33771;48.180;11.400;2023-04-15T06:49:09;6.30;99.90
48007;DHT22;33771;48.180;11.400;2023-04-15T06:51:36;6.40;99.90
48007;DHT22;33771;48.180;11.400;2023-04-15T06:54:02;6.50;99.90
48007;DHT22;33771;48.180;11.400;2023-04-15T06:56:30;6.50;99.90
48007;DHT22;33771;48.180;11.400;2023-04-15T06:58:56;6.50;99.90
48007;DHT22;33771;48.180;11.400;2023-04-15T07:01:22;6.60;99.90
48007;DHT22;33771;48.180;11.400;2023-04-15T07:03:47;6.60;99.90
48007;DHT22;33771;48.180;11.400;2023-04-15T07:06:13;6.70;99.90
48007;DHT22;33771;48.180;11.400;2023-04-15T07:08:38;6.70;99.90
48007;DHT22;33771;48.180;11.400;2023-04-15T07:11:04;6.80;99.90
48007;DHT22;33771;48.180;11.400;2023-04-15T07:13:31;6.80;99.90
48007;DHT22;33771;48.180;11.400;2023-04-15T07:15:56;6.80;99.90
48007;DHT22;33771;48.180;11.400;2023-04-15T07:18:22;6.90;99.90
48007;DHT22;33771;48.180;11.400;2023-04-15T07:20:50;7.00;99.90
48007;DHT22;33771;48.180;11.400;2023-04-15T07:23:16;7.10;99.90
48007;DHT22;33771;48.180;11.400;2023-04-15T07:25:41;7.10;99.90
48007;DHT22;33771;48.180;11.400;2023-04-15T07:28:07;7.20;99.90
48007;DHT22;33771;48.180;11.400;2023-04-15T07:30:32;7.40;99.90
48007;DHT22;33771;48.180;11.400;2023-04-15T07:32:59;7.50;99.90
48007;DHT22;33771;48.180;11.400;2023-04-15T07:35:24;7.60;99.90
48007;DHT22;33771;48.180;11.400;2023-04-15T07:37:50;7.70;99.90
48007;DHT22;33771;48.180;11.400;2023-04-15T07:40:16;7.90;99.90
48007;DHT22;33771;48.180;11.400;2023-04-15T07:42:43;8.00;99.90
48007;DHT22;33771;48.180;11.400;2023-04-15T07:45:09;8.10;99.90
48007;DHT22;33771;48.180;11.400;2023-04-15T07:47:35;8.20;99.90
48007;DHT22;33771;48.180;11.400;2023-04-15T07:50:00;8.20;99.90
48007;DHT22;33771;48.180;11.400;2023-04-15T07:52:27;8.30;99.90
48007;DHT22;33771;48.180;11.400;2023-04-15T07:54:52;8.50;99.90
48007;DHT22;33771;48.180;11.400;2023-04-15T07:57:18;8.70;99.90
48007;DHT22;33771;48.180;11.400;2023-04-15T07:59:44;8.80;99.90
48007;DHT22;33771;48.180;11.400;2023-04-15T08:02:10;8.90;99.90
48007;DHT22;33771;48.180;11.400;2023-04-15T08:04:36;9.00;99.90
48007;DHT22;33771;48.180;11.400;2023-04-15T08:07:02;9.20;99.90
48007;DHT22;33771;48.180;11.400;2023-04-15T08:09:29;9.30;99.90
48007;DHT22;33771;48.180;11.400;2023-04-15T08:11:54;9.40;99.90
48007;DHT22;33771;48.180;11.400;2023-04-15T08:14:21;9.40;99.90
48007;DHT22;33771;48.180;11.400;2023-04-15T08:16:46;9.40;99.90
48007;DHT22;33771;48.180;11.400;2023-04-15T08:19:12;9.30;99.90
48007;DHT22;33771;48.180;11.400;2023-04-15T08:21:38;9.20;99.90
48007;DHT22;33771;48.180;11.400;2023-04-15T08:24:03;9.40;99.90
48007;DHT22;33771;48.180;11.400;2023-04-15T08:26:30;9.40;99.90
48007;DHT22;33771;48.180;11.400;2023-04-15T08:28:55;9.40;99.90
48007;DHT22;33771;48.180;11.400;2023-04-15T08:31:21;9.50;99.90
48007;DHT22;33771;48.180;11.400;2023-04-15T08:33:47;9.60;99.90
48007;DHT22;33771;48.180;11.400;2023-04-15T08:36:12;9.80;99.90
48007;DHT22;33771;48.180;11.400;2023-04-15T08:38:38;9.90;99.90
48007;DHT22;33771;48.180;11.400;2023-04-15T08:41:23;9.90;99.90
48007;DHT22;33771;48.180;11.400;2023-04-15T08:46:20;10.20;99.90
48007;DHT22;33771;48.180;11.400;2023-04-15T08:48:47;10.20;99.90
48007;DHT22;33771;48.180;11.400;2023-04-15T08:51:13;10.20;99.90
48007;DHT22;33771;48.180;11.400;2023-04-15T08:53:41;10.20;99.90
48007;DHT22;33771;48.180;11.400;2023-04-15T08:56:08;10.00;99.90
48007;DHT22;33771;48.180;11.400;2023-04-15T08:58:36;10.00;99.90
48007;DHT22;33771;48.180;11.400;2023-04-15T09:01:02;10.00;99.90
48007;DHT22;33771;48.180;11.400;2023-04-15T09:03:28;9.90;99.90
48007;DHT22;33771;48.180;11.400;2023-04-15T09:05:54;9.80;99.90
48007;DHT22;33771;48.180;11.400;2023-04-15T09:08:21;9.60;99.90
48007;DHT22;33771;48.180;11.400;2023-04-15T09:10:47;9.60;99.90
48007;DHT22;33771;48.180;11.400;2023-04-15T09:13:13;9.60;99.90
48007;DHT22;33771;48.180;11.400;2023-04-15T09:15:38;9.60;99.90
48007;DHT22;33771;48.180;11.400;2023-04-15T09:18:05;9.60;99.90
48007;DHT22;33771;48.180;11.400;2023-04-15T09:20:40;9.60;99.90
48007;DHT22;33771;48.180;11.400;2023-04-15T09:23:13;9.60;99.90
48007;DHT22;33771;48.180;11.400;2023-04-15T09:25:40;9.70;99.90
48007;DHT22;33771;48.180;11.400;2023-04-15T09:28:08;9.70;99.90
48007;DHT22;33771;48.180;11.400;2023-04-15T09:30:35;9.70;99.90
48007;DHT22;33771;48.180;11.400;2023-04-15T09:33:02;9.70;99.90
48007;DHT22;33771;48.180;11.400;2023-04-15T09:35:29;9.80;99.90
48007;DHT22;33771;48.180;11.400;2023-04-15T09:38:08;9.90;99.90
48007;DHT22;33771;48.180;11.400;2023-04-15T09:40:35;9.90;99.90
48007;DHT22;33771;48.180;11.400;2023-04-15T09:43:02;10.00;99.90
48007;DHT22;33771;48.180;11.400;2023-04-15T09:45:30;10.10;99.90
48007;DHT22;33771;48.180;11.400;2023-04-15T09:50:46;10.40;99.90
48007;DHT22;33771;48.180;11.400;2023-04-15T09:53:21;10.50;99.90
48007;DHT22;33771;48.180;11.400;2023-04-15T09:55:50;10.50;99.90
48007;DHT22;33771;48.180;11.400;2023-04-15T09:58:47;10.40;99.90
48007;DHT22;33771;48.180;11.400;2023-04-15T10:01:20;10.30;99.90
48007;DHT22;33771;48.180;11.400;2023-04-15T10:03:46;10.30;99.90
48007;DHT22;33771;48.180;11.400;2023-04-15T10:06:12;10.40;99.90
48007;DHT22;33771;48.180;11.400;2023-04-15T10:08:39;10.30;99.90
48007;DHT22;33771;48.180;11.400;2023-04-15T10:11:06;10.30;99.90
48007;DHT22;33771;48.180;11.400;2023-04-15T10:13:32;10.30;99.90
48007;DHT22;33771;48.180;11.400;2023-04-15T10:16:09;10.30;99.90
48007;DHT22;33771;48.180;11.400;2023-04-15T10:18:39;10.20;99.90
48007;DHT22;33771;48.180;11.400;2023-04-15T10:21:06;10.40;99.90
48007;DHT22;33771;48.180;11.400;2023-04-15T10:23:33;10.40;99.90
48007;DHT22;33771;48.180;11.400;2023-04-15T10:25:58;10.40;99.90
48007;DHT22;33771;48.180;11.400;2023-04-15T10:28:25;10.40;99.90
48007;DHT22;33771;48.180;11.400;2023-04-15T10:30:51;10.50;99.90
48007;DHT22;33771;48.180;11.400;2023-04-15T10:33:21;10.50;99.90
48007;DHT22;33771;48.180;11.400;2023-04-15T10:35:48;10.60;99.90
48007;DHT22;33771;48.180;11.400;2023-04-15T10:41:16;10.70;99.90
48007;DHT22;33771;48.180;11.400;2023-04-15T10:43:51;10.80;99.90
48007;DHT22;33771;48.180;11.400;2023-04-15T10:46:43;11.00;99.90
48007;DHT22;33771;48.180;11.400;2023-04-15T10:49:07;11.10;99.90
48007;DHT22;33771;48.180;11.400;2023-04-15T10:51:37;11.20;99.90
48007;DHT22;33771;48.180;11.400;2023-04-15T10:54:11;11.20;99.90
48007;DHT22;33771;48.180;11.400;2023-04-15T10:56:37;11.30;99.90
48007;DHT22;33771;48.180;11.400;2023-04-15T10:59:05;11.40;99.90
48007;DHT22;33771;48.180;11.400;2023-04-15T11:01:53;11.50;99.90
48007;DHT22;33771;48.180;11.400;2023-04-15T11:07:38;11.40;99.90
48007;DHT22;33771;48.180;11.400;2023-04-15T11:12:43;11.40;99.90
48007;DHT22;33771;48.180;11.400;2023-04-15T11:15:32;11.30;99.90
48007;DHT22;33771;48.180;11.400;2023-04-15T11:18:25;11.10;99.90
48007;DHT22;33771;48.180;11.400;2023-04-15T11:20:54;10.90;99.90
48007;DHT22;33771;48.180;11.400;2023-04-15T11:26:00;10.50;99.90
48007;DHT22;33771;48.180;11.400;2023-04-15T11:28:28;10.40;99.90
48007;DHT22;33771;48.180;11.400;2023-04-15T11:30:54;10.20;99.90
48007;DHT22;33771;48.180;11.400;2023-04-15T11:33:20;10.20;99.90
48007;DHT22;33771;48.180;11.400;2023-04-15T11:35:47;10.00;99.90
48007;DHT22;33771;48.180;11.400;2023-04-15T11:38:13;9.90;99.90
48007;DHT22;33771;48.180;11.400;2023-04-15T11:40:40;9.80;99.90
48007;DHT22;33771;48.180;11.400;2023-04-15T11:43:08;9.70;99.90
48007;DHT22;33771;48.180;11.400;2023-04-15T11:45:35;9.60;99.90
48007;DHT22;33771;48.180;11.400;2023-04-15T11:48:11;9.50;99.90
48007;DHT22;33771;48.180;11.400;2023-04-15T11:50:38;9.40;99.90
48007;DHT22;33771;48.180;11.400;2023-04-15T11:53:08;9.30;99.90
48007;DHT22;33771;48.180;11.400;2023-04-15T11:55:44;9.30;99.90
48007;DHT22;33771;48.180;11.400;2023-04-15T11:58:13;9.30;99.90
48007;DHT22;33771;48.180;11.400;2023-04-15T12:00:40;9.20;99.90
48007;DHT22;33771;48.180;11.400;2023-04-15T12:03:55;9.20;99.90
48007;DHT22;33771;48.180;11.400;2023-04-15T12:06:04;9.30;99.90
48007;DHT22;33771;48.180;11.400;2023-04-15T12:08:56;9.30;99.90
48007;DHT22;33771;48.180;11.400;2023-04-15T12:13:53;9.40;99.90
48007;DHT22;33771;48.180;11.400;2023-04-15T12:16:20;9.50;99.90
48007;DHT22;33771;48.180;11.400;2023-04-15T12:18:47;9.60;99.90
48007;DHT22;33771;48.180;11.400;2023-04-15T12:21:15;9.70;99.90
48007;DHT22;33771;48.180;11.400;2023-04-15T12:23:54;9.80;99.90
48007;DHT22;33771;48.180;11.400;2023-04-15T12:26:28;9.90;99.90
48007;DHT22;33771;48.180;11.400;2023-04-15T12:29:05;10.10;99.90
48007;DHT22;33771;48.180;11.400;2023-04-15T12:31:31;10.10;99.90
48007;DHT22;33771;48.180;11.400;2023-04-15T12:33:58;10.20;99.90
48007;DHT22;33771;48.180;11.400;2023-04-15T12:36:25;10.30;99.90
48007;DHT22;33771;48.180;11.400;2023-04-15T12:38:51;10.30;99.90
48007;DHT22;33771;48.180;11.400;2023-04-15T12:41:16;10.30;99.90
48007;DHT22;33771;48.180;11.400;2023-04-15T12:43:43;10.30;99.90
48007;DHT22;33771;48.180;11.400;2023-04-15T12:46:09;10.20;99.90
48007;DHT22;33771;48.180;11.400;2023-04-15T12:48:35;10.20;99.90
48007;DHT22;33771;48.180;11.400;2023-04-15T12:51:01;10.10;99.90
48007;DHT22;33771;48.180;11.400;2023-04-15T12:53:27;10.10;99.90
48007;DHT22;33771;48.180;11.400;2023-04-15T12:55:53;10.00;99.90
48007;DHT22;33771;48.180;11.400;2023-04-15T12:58:18;10.10;99.90
48007;DHT22;33771;48.180;11.400;2023-04-15T13:00:44;10.10;99.90
48007;DHT22;33771;48.180;11.400;2023-04-15T13:03:10;10.10;99.90
48007;DHT22;33771;48.180;11.400;2023-04-15T13:05:37;10.00;99.90
48007;DHT22;33771;48.180;11.400;2023-04-15T13:08:04;9.90;99.90
48007;DHT22;33771;48.180;11.400;2023-04-15T13:10:30;9.90;99.90
48007;DHT22;33771;48.180;11.400;2023-04-15T13:12:56;9.80;99.90
48007;DHT22;33771;48.180;11.400;2023-04-15T13:15:22;9.80;99.90
48007;DHT22;33771;48.180;11.400;2023-04-15T13:17:48;9.80;99.90
48007;DHT22;33771;48.180;11.400;2023-04-15T13:20:14;9.80;99.90
48007;DHT22;33771;48.180;11.400;2023-04-15T13:22:40;9.80;99.90
48007;DHT22;33771;48.180;11.400;2023-04-15T13:25:06;9.80;99.90
48007;DHT22;33771;48.180;11.400;2023-04-15T13:27:32;9.70;99.90
48007;DHT22;33771;48.180;11.400;2023-04-15T13:29:58;9.70;99.90
48007;DHT22;33771;48.180;11.400;2023-04-15T13:32:24;9.60;99.90
48007;DHT22;33771;48.180;11.400;2023-04-15T13:34:49;9.50;99.90
48007;DHT22;33771;48.180;11.400;2023-04-15T13:37:15;9.40;99.90
48007;DHT22;33771;48.180;11.400;2023-04-15T13:39:41;9.30;99.90
48007;DHT22;33771;48.180;11.400;2023-04-15T13:42:06;9.20;99.90
48007;DHT22;33771;48.180;11.400;2023-04-15T13:44:32;9.10;99.90
48007;DHT22;33771;48.180;11.400;2023-04-15T13:46:57;9.10;99.90
48007;DHT22;33771;48.180;11.400;2023-04-15T13:49:23;9.00;99.90
48007;DHT22;33771;48.180;11.400;2023-04-15T13:51:50;9.00;99.90
48007;DHT22;33771;48.180;11.400;2023-04-15T13:54:16;9.00;99.90
48007;DHT22;33771;48.180;11.400;2023-04-15T13:56:41;9.00;99.90
48007;DHT22;33771;48.180;11.400;2023-04-15T13:59:07;9.00;99.90
48007;DHT22;33771;48.180;11.400;2023-04-15T14:01:33;9.00;99.90
48007;DHT22;33771;48.180;11.400;2023-04-15T14:03:59;9.00;99.90
48007;DHT22;33771;48.180;11.400;2023-04-15T14:06:25;9.00;99.90
48007;DHT22;33771;48.180;11.400;2023-04-15T14:08:52;9.00;99.90
48007;DHT22;33771;48.180;11.400;2023-04-15T14:11:20;9.10;99.90
48007;DHT22;33771;48.180;11.400;2023-04-15T14:13:45;9.10;99.90
48007;DHT22;33771;48.180;11.400;2023-04-15T14:16:11;9.20;99.90
48007;DHT22;33771;48.180;11.400;2023-04-15T14:18:37;9.20;99.90
48007;DHT22;33771;48.180;11.400;2023-04-15T14:21:03;9.20;99.90
48007;DHT22;33771;48.180;11.400;2023-04-15T14:23:29;9.30;99.90
48007;DHT22;33771;48.180;11.400;2023-04-15T14:25:55;9.30;99.90
48007;DHT22;33771;48.180;11.400;2023-04-15T14:28:20;9.30;99.90
48007;DHT22;33771;48.180;11.400;2023-04-15T14:30:46;9.40;99.90
48007;DHT22;33771;48.180;11.400;2023-04-15T14:33:11;9.40;99.90
48007;DHT22;33771;48.180;11.400;2023-04-15T14:35:37;9.40;99.90
48007;DHT22;33771;48.180;11.400;2023-04-15T14:38:03;9.40;99.90
48007;DHT22;33771;48.180;11.400;2023-04-15T14:40:31;9.40;99.90
48007;DHT22;33771;48.180;11.400;2023-04-15T14:42:57;9.50;99.90
48007;DHT22;33771;48.180;11.400;2023-04-15T14:45:22;9.50;99.90
48007;DHT22;33771;48.180;11.400;2023-04-15T14:47:48;9.40;99.90
48007;DHT22;33771;48.180;11.400;2023-04-15T14:50:14;9.30;99.90
48007;DHT22;33771;48.180;11.400;2023-04-15T14:52:39;9.30;99.90
48007;DHT22;33771;48.180;11.400;2023-04-15T14:55:06;9.30;99.90
48007;DHT22;33771;48.180;11.400;2023-04-15T14:57:32;9.30;99.90
48007;DHT22;33771;48.180;11.400;2023-04-15T14:59:57;9.10;99.90
48007;DHT22;33771;48.180;11.400;2023-04-15T15:02:23;9.10;99.90
48007;DHT22;33771;48.180;11.400;2023-04-15T15:04:49;9.00;99.90
48007;DHT22;33771;48.180;11.400;2023-04-15T15:07:15;9.00;99.90
48007;DHT22;33771;48.180;11.400;2023-04-15T15:09:40;8.80;99.90
48007;DHT22;33771;48.180;11.400;2023-04-15T15:12:13;8.70;99.90
48007;DHT22;33771;48.180;11.400;2023-04-15T15:14:39;8.50;99.90
48007;DHT22;33771;48.180;11.400;2023-04-15T15:17:04;8.50;99.90
48007;DHT22;33771;48.180;11.400;2023-04-15T15:19:30;8.40;99.90
48007;DHT22;33771;48.180;11.400;2023-04-15T15:21:55;8.20;99.90
48007;DHT22;33771;48.180;11.400;2023-04-15T15:24:21;8.00;99.90
48007;DHT22;33771;48.180;11.400;2023-04-15T15:26:46;7.90;99.90
48007;DHT22;33771;48.180;11.400;2023-04-15T15:29:12;7.80;99.90
48007;DHT22;33771;48.180;11.400;2023-04-15T15:31:37;7.80;99.90
48007;DHT22;33771;48.180;11.400;2023-04-15T15:34:03;7.70;99.90
48007;DHT22;33771;48.180;11.400;2023-04-15T15:36:29;7.60;99.90
48007;DHT22;33771;48.180;11.400;2023-04-15T15:38:58;7.60;99.90
48007;DHT22;33771;48.180;11.400;2023-04-15T15:41:24;7.60;99.90
48007;DHT22;33771;48.180;11.400;2023-04-15T15:43:50;7.50;99.90